Terminal Aerodrome Forecast
Issued by NWS

Home | Current Version | Previous Version | Text Only | Print | Product List | Glossary Off
Versions: 1 2 3 4 5 6 7 8 9 10 11 12 13 14 15 16 17

490
FTUS43 KGRB 281136
TAFAUW
TAF
KAUW 281136Z 2812/2912 VRB03KT 6SM BR SCT010 SCT100
      TEMPO 2812/2814 3SM BR BKN009
     FM281400 03005KT P6SM FEW100 SCT200
     FM290600 07004KT P6SM SCT100 BKN200=

USA.gov is the U.S. government's official web portal to all federal, state and local government web resources and services.